createdAt,value
2023-01-06T00:00:44.378Z,1015.37
2023-01-06T00:01:44.511Z,1015.36
2023-01-06T00:02:44.743Z,1015.41
2023-01-06T00:03:44.785Z,1015.40
2023-01-06T00:04:45.013Z,1015.41
2023-01-06T00:05:45.067Z,1015.39
2023-01-06T00:06:45.231Z,1015.41
2023-01-06T00:07:45.402Z,1015.39
2023-01-06T00:08:45.580Z,1015.37
2023-01-06T00:09:45.738Z,1015.39
2023-01-06T00:10:45.951Z,1015.41
2023-01-06T00:11:46.090Z,1015.41
2023-01-06T00:12:46.296Z,1015.43
2023-01-06T00:13:46.448Z,1015.45
2023-01-06T00:14:46.617Z,1015.40
2023-01-06T00:15:46.798Z,1015.43
2023-01-06T00:16:46.947Z,1015.43
2023-01-06T00:17:47.128Z,1015.42
2023-01-06T00:18:47.284Z,1015.43
2023-01-06T00:19:47.439Z,1015.39
2023-01-06T00:20:47.605Z,1015.39
2023-01-06T00:21:47.763Z,1015.36
2023-01-06T00:22:47.943Z,1015.38
2023-01-06T00:23:48.105Z,1015.40
2023-01-06T00:24:48.265Z,1015.40
2023-01-06T00:25:48.421Z,1015.42
2023-01-06T00:26:48.589Z,1015.42
2023-01-06T00:27:48.757Z,1015.39
2023-01-06T00:28:48.922Z,1015.33
2023-01-06T00:29:49.094Z,1015.27
2023-01-06T00:30:49.343Z,1015.19
2023-01-06T00:31:49.378Z,1015.16
2023-01-06T00:32:49.571Z,1015.21
2023-01-06T00:33:49.623Z,1015.16
2023-01-06T00:34:49.796Z,1015.17
2023-01-06T00:35:49.959Z,1015.20
2023-01-06T00:36:50.136Z,1015.20
2023-01-06T00:37:50.297Z,1015.19
2023-01-06T00:38:50.484Z,1015.19
2023-01-06T00:39:50.651Z,1015.21
2023-01-06T00:40:50.813Z,1015.26
2023-01-06T00:41:50.980Z,1015.23
2023-01-06T00:42:51.144Z,1015.27
2023-01-06T00:43:51.303Z,1015.30
2023-01-06T00:44:51.482Z,1015.23
2023-01-06T00:45:51.674Z,1015.20
2023-01-06T00:46:51.747Z,1015.21
2023-01-06T00:47:51.922Z,1015.21
2023-01-06T00:49:06.228Z,1015.25
2023-01-06T00:49:53.207Z,1015.26
2023-01-06T00:50:52.379Z,1015.27
2023-01-06T00:51:52.543Z,1015.28
2023-01-06T00:52:52.735Z,1015.25
2023-01-06T00:53:52.885Z,1015.27
2023-01-06T00:54:53.053Z,1015.25
2023-01-06T00:55:53.221Z,1015.28
2023-01-06T00:56:53.391Z,1015.22
2023-01-06T00:57:53.602Z,1015.27
2023-01-06T00:58:53.675Z,1015.27
2023-01-06T00:59:53.845Z,1015.29
2023-01-06T01:00:54.032Z,1015.30
2023-01-06T01:01:54.350Z,1015.30
2023-01-06T01:02:54.414Z,1015.28
2023-01-06T01:03:54.464Z,1015.32
2023-01-06T01:04:54.628Z,1015.34
2023-01-06T01:05:54.803Z,1015.30
2023-01-06T01:06:54.980Z,1015.36
2023-01-06T01:07:55.168Z,1015.34
2023-01-06T01:08:55.340Z,1015.32
2023-01-06T01:09:55.510Z,1015.33
2023-01-06T01:10:55.701Z,1015.27
2023-01-06T01:11:55.877Z,1015.25
2023-01-06T01:12:56.066Z,1015.23
2023-01-06T01:13:56.223Z,1015.26
2023-01-06T01:14:56.391Z,1015.27
2023-01-06T01:15:56.555Z,1015.25
2023-01-06T01:16:56.711Z,1015.21
2023-01-06T01:17:56.883Z,1015.23
2023-01-06T01:18:57.063Z,1015.22
2023-01-06T01:19:57.213Z,1015.19
2023-01-06T01:20:57.388Z,1015.19
2023-01-06T01:21:57.587Z,1015.16
2023-01-06T01:22:57.665Z,1015.16
2023-01-06T01:23:57.836Z,1015.12
2023-01-06T01:24:58.005Z,1015.14
2023-01-06T01:25:58.165Z,1015.12
2023-01-06T01:26:58.339Z,1015.08
2023-01-06T01:27:58.507Z,1015.08
2023-01-06T01:28:58.691Z,1015.07
2023-01-06T01:29:58.857Z,1015.07
2023-01-06T01:30:59.052Z,1015.04
2023-01-06T01:31:59.206Z,1015.02
2023-01-06T01:32:59.365Z,1014.99
2023-01-06T01:33:59.521Z,1014.97
2023-01-06T01:34:59.681Z,1014.93
2023-01-06T01:35:59.842Z,1014.96
2023-01-06T01:37:00.015Z,1014.98
2023-01-06T01:38:00.180Z,1014.99
2023-01-06T01:39:00.346Z,1015.04
2023-01-06T01:40:00.498Z,1015.00
2023-01-06T01:41:00.667Z,1015.01
2023-01-06T01:42:00.849Z,1015.00
2023-01-06T01:43:01.029Z,1014.97
2023-01-06T01:44:01.214Z,1015.01
2023-01-06T01:45:01.360Z,1014.97
2023-01-06T01:46:01.593Z,1015.02
2023-01-06T01:47:01.651Z,1015.01
2023-01-06T01:48:01.822Z,1015.00
2023-01-06T01:49:01.991Z,1014.98
2023-01-06T01:50:02.147Z,1015.03
2023-01-06T01:51:02.316Z,1015.03
2023-01-06T01:52:02.503Z,1015.05
2023-01-06T01:53:02.695Z,1015.01
2023-01-06T01:54:02.857Z,1014.99
2023-01-06T01:55:03.028Z,1014.96
2023-01-06T01:56:03.180Z,1014.95
2023-01-06T01:57:03.356Z,1014.90
2023-01-06T01:58:03.524Z,1014.92
2023-01-06T01:59:03.692Z,1014.92
2023-01-06T02:00:03.782Z,1014.94
2023-01-06T02:01:04.050Z,1014.89
2023-01-06T02:02:04.124Z,1014.89
2023-01-06T02:03:04.177Z,1014.91
2023-01-06T02:04:04.291Z,1014.93
2023-01-06T02:05:04.440Z,1014.90
2023-01-06T02:06:04.604Z,1014.88
2023-01-06T02:07:04.786Z,1014.82
2023-01-06T02:08:04.955Z,1014.86
2023-01-06T02:09:05.127Z,1014.87
2023-01-06T02:10:05.276Z,1014.84
2023-01-06T02:11:05.435Z,1014.85
2023-01-06T02:12:05.589Z,1014.84
2023-01-06T02:13:05.773Z,1014.88
2023-01-06T02:14:05.919Z,1014.86
2023-01-06T02:15:06.083Z,1014.84
2023-01-06T02:16:06.270Z,1014.86
2023-01-06T02:17:06.393Z,1014.86
2023-01-06T02:18:06.562Z,1014.83
2023-01-06T02:19:06.727Z,1014.82
2023-01-06T02:20:06.871Z,1014.78
2023-01-06T02:21:07.036Z,1014.74
2023-01-06T02:22:07.196Z,1014.79
2023-01-06T02:23:07.374Z,1014.75
2023-01-06T02:24:07.520Z,1014.76
2023-01-06T02:25:07.690Z,1014.74
2023-01-06T02:26:07.838Z,1014.74
2023-01-06T02:27:07.995Z,1014.71
2023-01-06T02:28:08.166Z,1014.68
2023-01-06T02:29:08.357Z,1014.68
2023-01-06T02:30:08.519Z,1014.66
2023-01-06T02:31:08.735Z,1014.56
2023-01-06T02:32:08.777Z,1014.56
2023-01-06T02:33:08.946Z,1014.59
2023-01-06T02:34:09.106Z,1014.60
2023-01-06T02:35:09.269Z,1014.61
2023-01-06T02:36:09.410Z,1014.61
2023-01-06T02:37:09.578Z,1014.63
2023-01-06T02:38:09.772Z,1014.58
2023-01-06T02:39:09.923Z,1014.54
2023-01-06T02:40:10.097Z,1014.54
2023-01-06T02:41:10.239Z,1014.57
2023-01-06T02:42:10.402Z,1014.52
2023-01-06T02:43:10.563Z,1014.55
2023-01-06T02:44:12.077Z,1014.54
2023-01-06T02:45:10.912Z,1014.55
2023-01-06T02:46:11.126Z,1014.54
2023-01-06T02:47:11.179Z,1014.55
2023-01-06T02:48:11.362Z,1014.56
2023-01-06T02:49:11.521Z,1014.55
2023-01-06T02:50:11.688Z,1014.55
2023-01-06T02:51:11.842Z,1014.49
2023-01-06T02:52:12.012Z,1014.52
2023-01-06T02:53:12.194Z,1014.49
2023-01-06T02:54:12.368Z,1014.48
2023-01-06T02:55:12.514Z,1014.46
2023-01-06T02:56:12.669Z,1014.45
2023-01-06T02:57:12.824Z,1014.53
2023-01-06T02:58:13.008Z,1014.53
2023-01-06T02:59:13.151Z,1014.53
2023-01-06T03:00:13.328Z,1014.55
2023-01-06T03:01:13.514Z,1014.48
2023-01-06T03:02:13.725Z,1014.50
2023-01-06T03:03:13.777Z,1014.47
2023-01-06T03:04:14.052Z,1014.45
2023-01-06T03:05:14.134Z,1014.43
2023-01-06T03:06:14.292Z,1014.44
2023-01-06T03:07:14.441Z,1014.48
2023-01-06T03:08:14.659Z,1014.50
2023-01-06T03:09:14.785Z,1014.51
2023-01-06T03:10:14.949Z,1014.52
2023-01-06T03:11:15.105Z,1014.47
2023-01-06T03:12:15.275Z,1014.44
2023-01-06T03:13:15.453Z,1014.44
2023-01-06T03:14:15.616Z,1014.40
2023-01-06T03:15:15.781Z,1014.37
2023-01-06T03:16:16.040Z,1014.33
2023-01-06T03:17:16.032Z,1014.39
2023-01-06T03:18:16.204Z,1014.34
2023-01-06T03:19:16.351Z,1014.29
2023-01-06T03:20:16.525Z,1014.31
2023-01-06T03:21:16.677Z,1014.28
2023-01-06T03:22:16.843Z,1014.30
2023-01-06T03:23:17.015Z,1014.26
2023-01-06T03:24:17.186Z,1014.24
2023-01-06T03:25:17.340Z,1014.23
2023-01-06T03:26:17.521Z,1014.24
2023-01-06T03:27:17.675Z,1014.21
2023-01-06T03:28:17.864Z,1014.18
2023-01-06T03:29:18.019Z,1014.18
2023-01-06T03:30:18.190Z,1014.14
2023-01-06T03:31:18.380Z,1014.16
2023-01-06T03:32:18.509Z,1014.15
2023-01-06T03:33:18.679Z,1014.16
2023-01-06T03:34:18.838Z,1014.15
2023-01-06T03:35:18.995Z,1014.13
2023-01-06T03:36:19.155Z,1014.14
2023-01-06T03:37:19.308Z,1014.12
2023-01-06T03:38:19.492Z,1014.11
2023-01-06T03:39:19.636Z,1014.10
2023-01-06T03:40:26.810Z,1014.08
2023-01-06T03:41:19.939Z,1014.11
2023-01-06T03:42:35.345Z,1014.02
2023-01-06T03:43:21.233Z,1014.01
2023-01-06T03:44:20.437Z,1014.01
2023-01-06T03:45:20.600Z,1014.02
2023-01-06T03:46:20.800Z,1014.03
2023-01-06T03:47:20.929Z,1014.02
2023-01-06T03:48:21.096Z,1014.05
2023-01-06T03:49:21.255Z,1013.98
2023-01-06T03:50:21.429Z,1013.99
2023-01-06T03:51:21.596Z,1013.97
2023-01-06T03:52:21.780Z,1013.97
2023-01-06T03:53:22.581Z,1014.01
2023-01-06T03:54:22.083Z,1013.98
2023-01-06T03:55:22.233Z,1013.97
2023-01-06T03:56:22.391Z,1013.92
2023-01-06T03:57:22.547Z,1013.88
2023-01-06T03:58:22.719Z,1013.84
2023-01-06T03:59:22.877Z,1013.82
2023-01-06T04:00:23.043Z,1013.78
2023-01-06T04:01:23.333Z,1013.78
2023-01-06T04:02:23.383Z,1013.79
2023-01-06T04:03:23.557Z,1013.83
2023-01-06T04:04:23.726Z,1013.83
2023-01-06T04:05:23.877Z,1013.84
2023-01-06T04:06:24.054Z,1013.84
2023-01-06T04:07:24.209Z,1013.86
2023-01-06T04:08:24.361Z,1013.82
2023-01-06T04:09:24.527Z,1013.80
2023-01-06T04:10:24.688Z,1013.82
2023-01-06T04:11:24.846Z,1013.82
2023-01-06T04:12:25.006Z,1013.84
2023-01-06T04:13:25.149Z,1013.87
2023-01-06T04:14:25.316Z,1013.86
2023-01-06T04:15:25.477Z,1013.82
2023-01-06T04:16:25.682Z,1013.83
2023-01-06T04:17:25.728Z,1013.77
2023-01-06T04:18:25.886Z,1013.76
2023-01-06T04:19:26.050Z,1013.77
2023-01-06T04:20:26.218Z,1013.79
2023-01-06T04:21:26.366Z,1013.76
2023-01-06T04:22:26.530Z,1013.75
2023-01-06T04:23:26.680Z,1013.74
2023-01-06T04:24:26.848Z,1013.77
2023-01-06T04:25:27.002Z,1013.69
2023-01-06T04:26:27.157Z,1013.68
2023-01-06T04:27:27.299Z,1013.71
2023-01-06T04:28:27.460Z,1013.67
2023-01-06T04:29:27.613Z,1013.66
2023-01-06T04:30:27.799Z,1013.68
2023-01-06T04:31:27.924Z,1013.63
2023-01-06T04:32:28.060Z,1013.63
2023-01-06T04:33:28.174Z,1013.65
2023-01-06T04:34:28.325Z,1013.61
2023-01-06T04:35:28.480Z,1013.60
2023-01-06T04:36:28.623Z,1013.58
2023-01-06T04:37:28.744Z,1013.58
2023-01-06T04:38:28.927Z,1013.58
2023-01-06T04:39:29.093Z,1013.61
2023-01-06T04:40:29.273Z,1013.56
2023-01-06T04:41:29.428Z,1013.57
2023-01-06T04:42:29.589Z,1013.65
2023-01-06T04:43:29.741Z,1013.48
2023-01-06T04:44:29.913Z,1013.49
2023-01-06T04:45:30.115Z,1013.51
2023-01-06T04:46:30.314Z,1013.45
2023-01-06T04:47:30.347Z,1013.44
2023-01-06T04:48:30.510Z,1013.42
2023-01-06T04:49:30.683Z,1013.36
2023-01-06T04:50:30.841Z,1013.36
2023-01-06T04:51:30.991Z,1013.32
2023-01-06T04:52:31.159Z,1013.30
2023-01-06T04:53:31.312Z,1013.32
2023-01-06T04:54:31.680Z,1013.23
2023-01-06T04:55:31.650Z,1013.26
2023-01-06T04:56:31.821Z,1013.22
2023-01-06T04:57:31.956Z,1013.18
2023-01-06T04:58:32.125Z,1013.13
2023-01-06T04:59:32.307Z,1013.11
2023-01-06T05:00:32.388Z,1013.07
2023-01-06T05:01:32.636Z,1013.11
2023-01-06T05:02:32.675Z,1013.10
2023-01-06T05:03:32.798Z,1013.05
2023-01-06T05:04:43.386Z,1013.03
2023-01-06T05:05:34.089Z,1013.03
2023-01-06T05:06:33.223Z,1012.98
2023-01-06T05:07:33.333Z,1013.02
2023-01-06T05:08:33.489Z,1013.02
2023-01-06T05:09:33.660Z,1012.98
2023-01-06T05:10:33.830Z,1013.01
2023-01-06T05:11:33.983Z,1012.97
2023-01-06T05:12:34.165Z,1012.90
2023-01-06T05:13:34.338Z,1012.91
2023-01-06T05:14:34.493Z,1012.94
2023-01-06T05:15:34.667Z,1012.94
2023-01-06T05:16:34.893Z,1012.93
2023-01-06T05:17:34.938Z,1012.93
2023-01-06T05:18:35.101Z,1012.93
2023-01-06T05:19:35.261Z,1012.95
2023-01-06T05:20:35.443Z,1012.95
2023-01-06T05:21:35.643Z,1012.92
2023-01-06T05:22:35.793Z,1013.00
2023-01-06T05:23:35.974Z,1013.00
2023-01-06T05:24:36.161Z,1012.94
2023-01-06T05:25:36.335Z,1012.92
2023-01-06T05:26:36.499Z,1012.94
2023-01-06T05:27:36.668Z,1012.96
2023-01-06T05:28:36.848Z,1012.92
2023-01-06T05:29:37.052Z,1012.95
2023-01-06T05:30:37.187Z,1012.89
2023-01-06T05:31:37.400Z,1012.91
2023-01-06T05:32:37.487Z,1012.86
2023-01-06T05:33:37.656Z,1012.87
2023-01-06T05:34:37.840Z,1012.81
2023-01-06T05:35:38.013Z,1012.80
2023-01-06T05:36:38.184Z,1012.83
2023-01-06T05:37:38.355Z,1012.79
2023-01-06T05:38:38.566Z,1012.91
2023-01-06T05:39:38.657Z,1012.78
2023-01-06T05:40:38.728Z,1012.76
2023-01-06T05:41:38.898Z,1012.72
2023-01-06T05:42:39.103Z,1012.73
2023-01-06T05:43:39.273Z,1012.67
2023-01-06T05:44:39.474Z,1012.66
2023-01-06T05:45:39.750Z,1012.65
2023-01-06T05:46:39.835Z,1012.60
2023-01-06T05:47:40.027Z,1012.64
2023-01-06T05:48:40.357Z,1012.64
2023-01-06T05:49:40.349Z,1012.64
2023-01-06T05:50:40.572Z,1012.65
2023-01-06T05:51:40.645Z,1012.62
2023-01-06T05:52:40.832Z,1012.58
2023-01-06T05:53:41.013Z,1012.59
2023-01-06T05:54:41.213Z,1012.59
2023-01-06T05:55:41.392Z,1012.62
2023-01-06T05:56:41.581Z,1012.59
2023-01-06T05:57:41.766Z,1012.58
2023-01-06T05:58:41.968Z,1012.56
2023-01-06T05:59:42.060Z,1012.60
2023-01-06T06:00:42.250Z,1012.57
2023-01-06T06:01:42.400Z,1012.56
2023-01-06T06:02:42.540Z,1012.58
2023-01-06T06:03:42.693Z,1012.57
2023-01-06T06:04:42.773Z,1012.59
2023-01-06T06:05:42.957Z,1012.58
2023-01-06T06:06:43.138Z,1012.56
2023-01-06T06:07:43.320Z,1012.53
2023-01-06T06:08:43.584Z,1012.56
2023-01-06T06:09:43.662Z,1012.54
2023-01-06T06:10:43.745Z,1012.53
2023-01-06T06:11:43.834Z,1012.58
2023-01-06T06:12:43.919Z,1012.60
2023-01-06T06:13:44.106Z,1012.62
2023-01-06T06:14:44.213Z,1012.61
2023-01-06T06:15:44.416Z,1012.59
2023-01-06T06:16:44.675Z,1012.62
2023-01-06T06:17:44.677Z,1012.55
2023-01-06T06:18:44.875Z,1012.56
2023-01-06T06:19:45.005Z,1012.55
2023-01-06T06:20:45.091Z,1012.51
2023-01-06T06:21:45.274Z,1012.55
2023-01-06T06:22:45.459Z,1012.43
2023-01-06T06:23:45.641Z,1012.50
2023-01-06T06:24:45.833Z,1012.44
2023-01-06T06:25:46.021Z,1012.43
2023-01-06T06:26:46.212Z,1012.39
2023-01-06T06:27:46.394Z,1012.34
2023-01-06T06:28:46.610Z,1012.29
2023-01-06T06:29:46.656Z,1012.25
2023-01-06T06:30:46.852Z,1012.22
2023-01-06T06:31:47.056Z,1012.25
2023-01-06T06:32:47.315Z,1012.21
2023-01-06T06:33:47.391Z,1012.21
2023-01-06T06:34:47.593Z,1012.16
2023-01-06T06:35:47.725Z,1012.25
2023-01-06T06:36:47.933Z,1012.23
2023-01-06T06:37:47.997Z,1012.26
2023-01-06T06:38:48.186Z,1012.28
2023-01-06T06:39:48.365Z,1012.29
2023-01-06T06:40:48.536Z,1012.29
2023-01-06T06:41:48.719Z,1012.24
2023-01-06T06:42:48.887Z,1012.22
2023-01-06T06:43:49.062Z,1012.19
2023-01-06T06:44:51.948Z,1012.22
2023-01-06T06:45:49.383Z,1012.18
2023-01-06T06:46:49.563Z,1012.20
2023-01-06T06:47:49.619Z,1012.16
2023-01-06T06:48:49.825Z,1012.15
2023-01-06T06:49:49.986Z,1012.18
2023-01-06T06:50:50.236Z,1012.17
2023-01-06T06:51:50.304Z,1012.18
2023-01-06T06:52:50.493Z,1012.19
2023-01-06T06:53:50.676Z,1012.09
2023-01-06T06:54:50.855Z,1012.05
2023-01-06T06:55:51.034Z,1012.12
2023-01-06T06:56:51.215Z,1012.06
2023-01-06T06:57:51.365Z,1012.09
2023-01-06T06:58:51.457Z,1012.03
2023-01-06T06:59:51.601Z,1012.05
2023-01-06T07:00:51.747Z,1012.02
2023-01-06T07:01:51.996Z,1012.01
2023-01-06T07:02:51.991Z,1012.02
2023-01-06T07:03:52.092Z,1012.04
2023-01-06T07:04:52.424Z,1011.97
2023-01-06T07:05:52.308Z,1011.97
2023-01-06T07:06:52.417Z,1011.89
2023-01-06T07:07:52.512Z,1011.90
2023-01-06T07:08:52.634Z,1011.91
2023-01-06T07:09:52.760Z,1011.89
2023-01-06T07:10:52.927Z,1011.90
2023-01-06T07:11:53.022Z,1011.88
2023-01-06T07:12:53.161Z,1011.91
2023-01-06T07:13:53.340Z,1011.90
2023-01-06T07:14:53.449Z,1011.93
2023-01-06T07:15:53.596Z,1011.90
2023-01-06T07:16:54.111Z,1011.89
2023-01-06T07:17:53.910Z,1011.90
2023-01-06T07:18:53.987Z,1011.89
2023-01-06T07:19:54.115Z,1011.89
2023-01-06T07:20:54.346Z,1011.94
2023-01-06T07:21:54.360Z,1012.01
2023-01-06T07:22:54.486Z,1011.95
2023-01-06T07:23:54.565Z,1011.93
2023-01-06T07:24:54.679Z,1011.96
2023-01-06T07:25:54.784Z,1011.94
2023-01-06T07:26:54.870Z,1011.95
2023-01-06T07:27:55.043Z,1011.95
2023-01-06T07:28:55.125Z,1011.95
2023-01-06T07:29:55.346Z,1011.96
2023-01-06T07:30:55.458Z,1011.89
2023-01-06T07:31:55.560Z,1011.90
2023-01-06T07:32:55.631Z,1011.91
2023-01-06T07:33:55.815Z,1011.99
2023-01-06T07:34:56.018Z,1011.93
2023-01-06T07:35:56.111Z,1011.99
2023-01-06T07:36:56.182Z,1011.96
2023-01-06T07:37:58.268Z,1012.01
2023-01-06T07:38:56.513Z,1011.96
2023-01-06T07:39:56.729Z,1011.93
2023-01-06T07:40:56.788Z,1011.93
2023-01-06T07:41:56.981Z,1011.97
2023-01-06T07:42:57.195Z,1011.95
2023-01-06T07:43:57.360Z,1011.97
2023-01-06T07:44:57.439Z,1011.98
2023-01-06T07:45:57.597Z,1012.00
2023-01-06T07:46:57.674Z,1012.06
2023-01-06T07:47:57.854Z,1012.07
2023-01-06T07:48:58.027Z,1012.06
2023-01-06T07:49:58.232Z,1012.06
2023-01-06T07:50:58.304Z,1012.03
2023-01-06T07:51:58.519Z,1011.98
2023-01-06T07:52:59.031Z,1012.04
2023-01-06T07:53:58.781Z,1012.01
2023-01-06T07:54:58.978Z,1012.02
2023-01-06T07:55:59.157Z,1012.03
2023-01-06T07:56:59.366Z,1012.00
2023-01-06T07:57:59.446Z,1012.06
2023-01-06T07:58:59.686Z,1012.06
2023-01-06T07:59:59.776Z,1012.07
2023-01-06T08:00:59.846Z,1012.01
2023-01-06T08:02:00.109Z,1011.97
2023-01-06T08:03:00.315Z,1011.97
2023-01-06T08:04:00.446Z,1011.94
2023-01-06T08:05:00.610Z,1011.91
2023-01-06T08:06:00.663Z,1011.90
2023-01-06T08:07:00.842Z,1011.87
2023-01-06T08:08:01.027Z,1011.80
2023-01-06T08:09:01.190Z,1011.78
2023-01-06T08:10:01.450Z,1011.78
2023-01-06T08:11:01.523Z,1011.86
2023-01-06T08:12:01.703Z,1011.87
2023-01-06T08:13:01.896Z,1011.81
2023-01-06T08:14:02.092Z,1011.77
2023-01-06T08:15:02.280Z,1011.74
2023-01-06T08:16:02.478Z,1011.76
2023-01-06T08:17:02.529Z,1011.72
2023-01-06T08:18:02.708Z,1011.77
2023-01-06T08:19:02.860Z,1011.70
2023-01-06T08:20:03.931Z,1011.67
2023-01-06T08:21:03.166Z,1011.71
2023-01-06T08:22:03.352Z,1011.62
2023-01-06T08:23:03.542Z,1011.60
2023-01-06T08:24:03.688Z,1011.68
2023-01-06T08:25:03.763Z,1011.62
2023-01-06T08:26:03.997Z,1011.66
2023-01-06T08:27:04.283Z,1011.71
2023-01-06T08:28:04.142Z,1011.69
2023-01-06T08:29:04.333Z,1011.66
2023-01-06T08:30:04.405Z,1011.64
2023-01-06T08:31:04.656Z,1011.63
2023-01-06T08:32:10.765Z,1011.53
2023-01-06T08:33:05.921Z,1011.62
2023-01-06T08:34:05.056Z,1011.55
2023-01-06T08:35:05.146Z,1011.49
2023-01-06T08:36:05.226Z,1011.45
2023-01-06T08:37:05.409Z,1011.45
2023-01-06T08:38:05.596Z,1011.44
2023-01-06T08:39:05.765Z,1011.49
2023-01-06T08:40:05.953Z,1011.52
2023-01-06T08:41:06.030Z,1011.55
2023-01-06T08:42:06.168Z,1011.54
2023-01-06T08:43:06.230Z,1011.56
2023-01-06T08:44:06.410Z,1011.51
2023-01-06T08:45:06.583Z,1011.50
2023-01-06T08:46:06.809Z,1011.57
2023-01-06T08:47:06.848Z,1011.54
2023-01-06T08:48:07.042Z,1011.41
2023-01-06T08:49:07.087Z,1011.41
2023-01-06T08:50:07.272Z,1011.44
2023-01-06T08:51:07.420Z,1011.38
2023-01-06T08:52:07.581Z,1011.35
2023-01-06T08:53:07.801Z,1011.32
2023-01-06T08:54:07.883Z,1011.33
2023-01-06T08:55:07.938Z,1011.29
2023-01-06T08:56:08.108Z,1011.28
2023-01-06T08:57:08.262Z,1011.28
2023-01-06T08:58:08.416Z,1011.24
2023-01-06T08:59:08.573Z,1011.26
2023-01-06T09:00:08.865Z,1011.28
2023-01-06T09:01:08.993Z,1011.26
2023-01-06T09:02:09.244Z,1011.20
2023-01-06T09:03:09.190Z,1011.20
2023-01-06T09:04:09.383Z,1011.17
2023-01-06T09:05:09.676Z,1011.17
2023-01-06T09:06:09.651Z,1011.16
2023-01-06T09:07:09.820Z,1011.22
2023-01-06T09:08:10.039Z,1011.26
2023-01-06T09:09:10.095Z,1011.25
2023-01-06T09:10:10.275Z,1011.27
2023-01-06T09:11:10.344Z,1011.22
2023-01-06T09:12:10.533Z,1011.23
2023-01-06T09:13:10.576Z,1011.24
2023-01-06T09:14:10.752Z,1011.30
2023-01-06T09:15:10.925Z,1011.32
2023-01-06T09:16:11.027Z,1011.40
2023-01-06T09:17:11.071Z,1011.43
2023-01-06T09:18:11.224Z,1011.46
2023-01-06T09:19:11.435Z,1011.57
2023-01-06T09:20:11.525Z,1011.53
2023-01-06T09:21:11.683Z,1011.52
2023-01-06T09:22:11.851Z,1011.45
2023-01-06T09:23:12.010Z,1011.37
2023-01-06T09:24:12.264Z,1011.33
2023-01-06T09:25:12.324Z,1011.32
2023-01-06T09:26:12.497Z,1011.32
2023-01-06T09:27:12.640Z,1011.29
2023-01-06T09:28:12.818Z,1011.20
2023-01-06T09:29:12.961Z,1011.18
2023-01-06T09:30:13.145Z,1011.06
2023-01-06T09:31:13.325Z,1011.06
2023-01-06T09:32:13.524Z,1011.10
2023-01-06T09:33:13.573Z,1011.13
2023-01-06T09:34:13.719Z,1011.12
2023-01-06T09:35:13.894Z,1011.15
2023-01-06T09:36:14.058Z,1011.22
2023-01-06T09:37:14.227Z,1011.18
2023-01-06T09:38:14.384Z,1011.22
2023-01-06T09:39:14.526Z,1011.18
2023-01-06T09:40:14.701Z,1011.14
2023-01-06T09:41:21.865Z,1011.09
2023-01-06T09:42:14.998Z,1011.09
2023-01-06T09:43:15.163Z,1011.04
2023-01-06T09:44:15.297Z,1011.03
2023-01-06T09:45:15.477Z,1011.00
2023-01-06T09:46:15.632Z,1010.97
2023-01-06T09:47:15.759Z,1010.95
2023-01-06T09:48:15.949Z,1010.93
2023-01-06T09:49:16.017Z,1010.91
2023-01-06T09:50:16.181Z,1010.91
2023-01-06T09:51:16.358Z,1010.94
2023-01-06T09:52:16.565Z,1010.86
2023-01-06T09:53:16.575Z,1010.94
2023-01-06T09:54:16.736Z,1010.89
2023-01-06T09:55:16.932Z,1010.92
2023-01-06T09:56:16.967Z,1010.84
2023-01-06T09:57:17.102Z,1010.81
2023-01-06T09:58:17.255Z,1010.82
2023-01-06T09:59:17.373Z,1010.67
2023-01-06T10:00:19.021Z,1010.65
2023-01-06T10:01:17.618Z,1010.62
2023-01-06T10:02:17.851Z,1010.57
2023-01-06T10:03:17.934Z,1010.66
2023-01-06T10:04:18.201Z,1010.66
2023-01-06T10:05:18.243Z,1010.65
2023-01-06T10:06:18.463Z,1010.59
2023-01-06T10:07:18.501Z,1010.56
2023-01-06T10:08:18.630Z,1010.60
2023-01-06T10:09:18.828Z,1010.59
2023-01-06T10:10:20.694Z,1010.54
2023-01-06T10:11:18.967Z,1010.48
2023-01-06T10:12:19.125Z,1010.50
2023-01-06T10:13:19.260Z,1010.43
2023-01-06T10:14:19.484Z,1010.38
2023-01-06T10:15:19.553Z,1010.39
2023-01-06T10:16:19.643Z,1010.42
2023-01-06T10:17:19.754Z,1010.45
2023-01-06T10:18:19.785Z,1010.44
2023-01-06T10:19:19.912Z,1010.43
2023-01-06T10:20:20.132Z,1010.44
2023-01-06T10:21:20.164Z,1010.45
2023-01-06T10:22:20.299Z,1010.39
2023-01-06T10:23:20.496Z,1010.38
2023-01-06T10:24:20.530Z,1010.33
2023-01-06T10:25:20.698Z,1010.31
2023-01-06T10:26:20.818Z,1010.36
2023-01-06T10:27:20.968Z,1010.26
2023-01-06T10:28:21.131Z,1010.24
2023-01-06T10:29:21.260Z,1010.24
2023-01-06T10:30:21.417Z,1010.26
2023-01-06T10:31:21.589Z,1010.31
2023-01-06T10:32:21.709Z,1010.28
2023-01-06T10:33:21.834Z,1010.24
2023-01-06T10:34:21.990Z,1010.20
2023-01-06T10:35:22.105Z,1010.18
2023-01-06T10:36:22.237Z,1010.20
2023-01-06T10:37:22.358Z,1010.17
2023-01-06T10:38:22.467Z,1010.18
2023-01-06T10:39:22.626Z,1010.13
2023-01-06T10:40:22.784Z,1010.07
2023-01-06T10:41:22.792Z,1010.07
2023-01-06T10:42:23.395Z,1010.03
2023-01-06T10:43:23.067Z,1009.98
2023-01-06T10:44:23.194Z,1010.06
2023-01-06T10:45:23.723Z,1010.04
2023-01-06T10:46:23.410Z,1010.06
2023-01-06T10:47:23.461Z,1010.06
2023-01-06T10:48:23.574Z,1010.02
2023-01-06T10:49:23.700Z,1010.03
2023-01-06T10:50:23.878Z,1010.00
2023-01-06T10:51:23.887Z,1010.01
2023-01-06T10:52:24.010Z,1009.96
2023-01-06T10:53:24.153Z,1010.01
2023-01-06T10:54:24.277Z,1009.86
2023-01-06T10:55:24.417Z,1009.88
2023-01-06T10:56:24.620Z,1009.87
2023-01-06T10:57:24.636Z,1009.91
2023-01-06T10:58:24.793Z,1009.94
2023-01-06T10:59:24.889Z,1009.93
2023-01-06T11:00:25.032Z,1009.93
2023-01-06T11:01:25.295Z,1009.92
2023-01-06T11:02:25.368Z,1009.88
2023-01-06T11:03:33.388Z,1009.88
2023-01-06T11:04:26.502Z,1009.88
2023-01-06T11:05:25.621Z,1009.90
2023-01-06T11:06:25.771Z,1009.92
2023-01-06T11:07:25.917Z,1009.92
2023-01-06T11:08:26.010Z,1009.89
2023-01-06T11:09:26.139Z,1009.89
2023-01-06T11:10:26.271Z,1009.90
2023-01-06T11:11:28.799Z,1009.85
2023-01-06T11:12:26.496Z,1009.84
2023-01-06T11:13:26.607Z,1009.78
2023-01-06T11:14:26.718Z,1009.79
2023-01-06T11:15:26.864Z,1009.86
2023-01-06T11:16:27.106Z,1009.77
2023-01-06T11:17:27.169Z,1009.82
2023-01-06T11:18:27.259Z,1009.81
2023-01-06T11:19:27.386Z,1009.73
2023-01-06T11:20:27.536Z,1009.67
2023-01-06T11:21:27.671Z,1009.69
2023-01-06T11:22:27.770Z,1009.62
2023-01-06T11:23:27.906Z,1009.62
2023-01-06T11:24:28.025Z,1009.59
2023-01-06T11:25:28.169Z,1009.55
2023-01-06T11:26:28.328Z,1009.54
2023-01-06T11:27:28.453Z,1009.57
2023-01-06T11:28:28.556Z,1009.51
2023-01-06T11:29:28.713Z,1009.56
2023-01-06T11:30:28.864Z,1009.57
2023-01-06T11:31:28.986Z,1009.59
2023-01-06T11:32:29.086Z,1009.56
2023-01-06T11:33:29.217Z,1009.55
2023-01-06T11:34:29.334Z,1009.51
2023-01-06T11:35:29.491Z,1009.58
2023-01-06T11:36:29.609Z,1009.59
2023-01-06T11:37:29.742Z,1009.56
2023-01-06T11:38:29.872Z,1009.48
2023-01-06T11:39:30.015Z,1009.46
2023-01-06T11:40:30.491Z,1009.55
2023-01-06T11:41:30.275Z,1009.59
2023-01-06T11:42:30.410Z,1009.47
2023-01-06T11:43:30.663Z,1009.48
2023-01-06T11:44:30.685Z,1009.38
2023-01-06T11:45:30.875Z,1009.43
2023-01-06T11:46:30.944Z,1009.45
2023-01-06T11:47:31.083Z,1009.52
2023-01-06T11:48:31.214Z,1009.47
2023-01-06T11:49:31.337Z,1009.44
2023-01-06T11:50:31.480Z,1009.38
2023-01-06T11:51:31.628Z,1009.43
2023-01-06T11:52:31.751Z,1009.40
2023-01-06T11:53:31.887Z,1009.40
2023-01-06T11:54:32.027Z,1009.48
2023-01-06T11:55:32.138Z,1009.48
2023-01-06T11:56:32.276Z,1009.45
2023-01-06T11:57:32.378Z,1009.45
2023-01-06T11:58:32.510Z,1009.50
2023-01-06T11:59:32.635Z,1009.49
2023-01-06T12:00:32.767Z,1009.47
2023-01-06T12:01:32.965Z,1009.44
2023-01-06T12:02:33.025Z,1009.43
2023-01-06T12:03:33.219Z,1009.45
2023-01-06T12:04:33.182Z,1009.39
2023-01-06T12:05:33.317Z,1009.33
2023-01-06T12:06:33.427Z,1009.38
2023-01-06T12:07:33.555Z,1009.32